Time;durP1;ratioP1;P1;durP2;ratioP2;P2;SDS_P1;SDS_P2;PMS_P1;PMS_P2;Temp;Humidity;BMP_temperature;BMP_pressure;BME280_temperature;BME280_humidity;BME280_pressure;Samples;Min_cycle;Max_cycle;Signal;HPM_P1;HPM_P2
2020/12/27 00:00:44;;;;;;;8.68;5.22;;;21.90;49.50;;;;;;5046779;28;45387;-42
2020/12/27 00:03:10;;;;;;;9.75;6.00;;;21.90;49.40;;;;;;5047292;28;45386;-41
2020/12/27 00:05:35;;;;;;;8.50;6.03;;;21.90;49.40;;;;;;5047229;28;45327;-41
2020/12/27 00:08:01;;;;;;;8.75;5.28;;;21.90;49.40;;;;;;5047794;28;45597;-41
2020/12/27 00:10:27;;;;;;;7.72;5.28;;;21.90;49.40;;;;;;5047105;28;45371;-42
2020/12/27 00:12:52;;;;;;;7.72;5.53;;;21.90;49.40;;;;;;5047010;28;45443;-42
2020/12/27 00:15:18;;;;;;;8.13;5.85;;;21.90;49.40;;;;;;5047229;28;45458;-42
2020/12/27 00:17:45;;;;;;;7.78;4.93;;;21.90;49.30;;;;;;5048279;28;45589;-41
2020/12/27 00:20:10;;;;;;;8.32;5.32;;;21.90;49.30;;;;;;5047059;28;45611;-43
2020/12/27 00:22:36;;;;;;;7.40;5.25;;;21.90;49.30;;;;;;5046858;28;45342;-42
2020/12/27 00:25:02;;;;;;;9.13;5.25;;;21.90;49.30;;;;;;5047465;28;45418;-42
2020/12/27 00:27:27;;;;;;;9.38;5.90;;;21.90;49.30;;;;;;5047639;28;45684;-42
2020/12/27 00:29:53;;;;;;;9.30;5.63;;;21.90;49.30;;;;;;5046779;28;46357;-42
2020/12/27 00:32:19;;;;;;;9.35;5.13;;;21.80;49.20;;;;;;5042345;28;45398;-41
2020/12/27 00:34:44;;;;;;;7.55;5.07;;;21.90;49.20;;;;;;5027027;28;45474;-41
2020/12/27 00:37:10;;;;;;;7.65;5.35;;;21.80;49.20;;;;;;5037648;28;45352;-41
2020/12/27 00:39:35;;;;;;;7.20;4.57;;;21.80;49.80;;;;;;5029326;28;47060;-41
2020/12/27 00:42:01;;;;;;;8.07;5.72;;;21.80;49.20;;;;;;5046718;28;45407;-42
2020/12/27 00:44:27;;;;;;;6.95;4.97;;;21.80;49.20;;;;;;5046980;28;45353;-41
2020/12/27 00:46:53;;;;;;;7.53;5.55;;;21.90;49.20;;;;;;5047189;28;45553;-42
2020/12/27 00:49:19;;;;;;;8.05;5.35;;;21.80;49.10;;;;;;5046394;28;45554;-41
2020/12/27 00:51:45;;;;;;;8.30;4.93;;;21.80;49.10;;;;;;5046593;28;45482;-41
2020/12/27 00:54:11;;;;;;;8.85;5.47;;;21.80;49.10;;;;;;5046633;28;45291;-42
2020/12/27 00:56:36;;;;;;;7.47;4.90;;;21.80;49.10;;;;;;5047389;28;45157;-42
2020/12/27 00:59:02;;;;;;;7.85;5.00;;;21.80;49.10;;;;;;5050465;28;47462;-42
2020/12/27 01:01:28;;;;;;;9.85;5.47;;;21.80;49.10;;;;;;5053171;28;45295;-41
2020/12/27 01:03:54;;;;;;;9.35;5.50;;;21.80;49.10;;;;;;5053550;28;45379;-42
2020/12/27 01:06:26;;;;;;;8.00;5.35;;;21.80;49.10;;;;;;5053678;28;45551;-41
2020/12/27 01:08:55;;;;;;;7.85;5.15;;;21.80;49.10;;;;;;5053286;28;46384;-42
2020/12/27 01:11:20;;;;;;;7.78;4.75;;;21.80;49.10;;;;;;5052971;28;45455;-42
2020/12/27 01:13:46;;;;;;;8.35;5.28;;;21.80;49.00;;;;;;5053237;28;45388;-42
2020/12/27 01:16:12;;;;;;;8.18;5.78;;;21.80;49.00;;;;;;5053563;28;45542;-42
2020/12/27 01:18:39;;;;;;;6.65;5.07;;;21.80;49.00;;;;;;5052482;28;45339;-42
2020/12/27 01:21:05;;;;;;;6.88;4.38;;;21.70;48.90;;;;;;5053081;28;45324;-42
2020/12/27 01:23:30;;;;;;;9.20;5.45;;;21.70;48.90;;;;;;5053037;28;45393;-41
2020/12/27 01:25:56;;;;;;;6.55;4.50;;;21.80;49.00;;;;;;5053339;28;45334;-42
2020/12/27 01:28:22;;;;;;;6.90;4.32;;;21.80;49.00;;;;;;5052791;28;46951;-42
2020/12/27 01:30:47;;;;;;;7.75;5.28;;;21.70;48.90;;;;;;5052914;28;45410;-41
2020/12/27 01:33:13;;;;;;;7.45;5.43;;;21.70;48.90;;;;;;5048699;28;45592;-42
2020/12/27 01:35:38;;;;;;;6.82;5.00;;;21.70;48.90;;;;;;5037955;28;45304;-42
2020/12/27 01:38:04;;;;;;;7.45;5.13;;;21.70;48.90;;;;;;5048545;28;45985;-41
2020/12/27 01:40:30;;;;;;;7.28;4.90;;;21.70;48.80;;;;;;5032735;28;45427;-41
2020/12/27 01:42:56;;;;;;;6.97;4.75;;;21.70;48.80;;;;;;5032643;28;45381;-41
2020/12/27 01:45:22;;;;;;;6.88;4.63;;;21.70;48.80;;;;;;5033202;28;45372;-41
2020/12/27 01:47:49;;;;;;;7.75;4.70;;;21.70;48.80;;;;;;5032441;28;46216;-40
2020/12/27 01:50:15;;;;;;;9.10;5.22;;;21.70;48.80;;;;;;5032497;28;45238;-41
2020/12/27 01:52:40;;;;;;;6.97;5.03;;;21.70;48.80;;;;;;5032691;28;45195;-42
2020/12/27 01:55:06;;;;;;;7.15;5.25;;;21.70;48.80;;;;;;5033142;28;45528;-41
2020/12/27 01:58:03;;;;;;;7.40;4.95;;;21.70;49.30;;;;;;5032128;28;47027;-40
2020/12/27 02:00:28;;;;;;;7.15;4.72;;;21.70;48.70;;;;;;5033628;28;45326;-41
2020/12/27 02:02:54;;;;;;;7.25;5.05;;;21.70;48.70;;;;;;5032430;28;45631;-41
2020/12/27 02:05:20;;;;;;;7.07;5.07;;;21.70;48.70;;;;;;5032963;28;45532;-41
2020/12/27 02:07:46;;;;;;;7.15;4.78;;;21.70;48.70;;;;;;5032524;28;45900;-42
2020/12/27 02:10:12;;;;;;;7.82;5.13;;;21.60;48.60;;;;;;5029583;28;45384;-41
2020/12/27 02:12:37;;;;;;;7.85;5.00;;;21.60;48.60;;;;;;5028791;28;45445;-41
2020/12/27 02:15:04;;;;;;;7.07;4.90;;;21.60;48.60;;;;;;5029672;28;45411;-41
2020/12/27 02:17:29;;;;;;;7.53;4.72;;;21.60;49.20;;;;;;5028860;28;46252;-41
2020/12/27 02:19:55;;;;;;;7.97;5.13;;;21.60;48.60;;;;;;5029075;28;45253;-40
2020/12/27 02:22:21;;;;;;;6.50;4.65;;;21.60;48.60;;;;;;5028730;28;45751;-41
2020/12/27 02:24:48;;;;;;;8.00;4.68;;;21.60;48.60;;;;;;5029360;28;45541;-42
2020/12/27 02:27:14;;;;;;;6.78;4.50;;;21.60;48.50;;;;;;5028201;28;46375;-43
2020/12/27 02:29:40;;;;;;;8.18;4.53;;;21.60;48.50;;;;;;5027312;28;45727;-42
2020/12/27 02:32:05;;;;;;;7.22;4.95;;;21.60;48.50;;;;;;5048110;28;45563;-41
2020/12/27 02:34:31;;;;;;;9.23;5.32;;;21.60;48.50;;;;;;5032485;28;45560;-42
2020/12/27 02:36:56;;;;;;;7.25;4.93;;;21.60;48.50;;;;;;5047715;28;45479;-41
2020/12/27 02:39:22;;;;;;;8.05;5.38;;;21.60;48.50;;;;;;5031474;28;45527;-42
2020/12/27 02:41:49;;;;;;;9.25;4.68;;;21.60;48.50;;;;;;5031836;28;45359;-43
2020/12/27 02:44:14;;;;;;;7.18;4.60;;;21.60;48.50;;;;;;5028322;28;45508;-41
2020/12/27 02:46:40;;;;;;;7.68;4.97;;;21.60;48.40;;;;;;5028042;28;47020;-41
2020/12/27 02:49:05;;;;;;;6.78;5.05;;;21.60;48.40;;;;;;5044691;28;45333;-42
2020/12/27 02:51:31;;;;;;;6.85;4.75;;;21.60;48.40;;;;;;5028505;28;45319;-41
2020/12/27 02:53:58;;;;;;;6.90;4.57;;;21.60;48.40;;;;;;5029989;28;45388;-42
2020/12/27 02:56:28;;;;;;;7.30;4.53;;;21.60;48.40;;;;;;5030688;28;46174;-40
2020/12/27 02:58:56;;;;;;;7.65;5.10;;;21.60;48.40;;;;;;5031690;28;45494;-41
2020/12/27 03:01:22;;;;;;;7.38;4.78;;;21.60;48.40;;;;;;5045647;28;45426;-41
2020/12/27 03:03:48;;;;;;;6.70;4.80;;;21.60;48.40;;;;;;5048800;28;45644;-41
2020/12/27 03:06:13;;;;;;;9.00;5.22;;;21.60;48.40;;;;;;5048276;28;46207;-41
2020/12/27 03:08:39;;;;;;;7.10;4.70;;;21.60;48.20;;;;;;5031519;28;45533;-42
2020/12/27 03:11:05;;;;;;;7.10;3.90;;;21.60;48.10;;;;;;5031588;28;45379;-41
2020/12/27 03:13:32;;;;;;;6.43;4.80;;;21.70;48.00;;;;;;5031935;28;45636;-42
2020/12/27 03:15:59;;;;;;;6.75;4.63;;;21.70;47.90;;;;;;5047553;28;45631;-42
2020/12/27 03:18:26;;;;;;;7.13;4.75;;;21.80;47.90;;;;;;5046565;28;45316;-41
2020/12/27 03:20:52;;;;;;;6.82;3.95;;;21.80;47.70;;;;;;5049097;28;45327;-41
2020/12/27 03:23:17;;;;;;;6.57;4.28;;;21.80;47.70;;;;;;5031571;28;45452;-41
2020/12/27 03:25:43;;;;;;;6.82;4.70;;;21.90;47.60;;;;;;5031002;28;46092;-41
2020/12/27 03:28:09;;;;;;;6.95;4.53;;;21.90;47.60;;;;;;5047785;28;45360;-41
2020/12/27 03:30:35;;;;;;;6.88;4.30;;;21.90;47.60;;;;;;5031242;28;45332;-41
2020/12/27 03:33:01;;;;;;;6.20;4.15;;;22.00;47.50;;;;;;5030626;28;45348;-41
2020/12/27 03:35:26;;;;;;;5.57;3.63;;;22.00;47.50;;;;;;5029801;28;45468;-41
2020/12/27 03:37:52;;;;;;;6.32;4.18;;;22.10;47.50;;;;;;5041713;28;45517;-41
2020/12/27 03:40:18;;;;;;;7.32;4.57;;;22.10;47.40;;;;;;5025713;28;45665;-41
2020/12/27 03:42:44;;;;;;;6.68;3.90;;;22.20;47.40;;;;;;5025743;28;45587;-41
2020/12/27 03:45:09;;;;;;;6.97;4.43;;;22.20;47.30;;;;;;5026500;28;46553;-41
2020/12/27 03:47:35;;;;;;;6.07;4.30;;;22.20;47.20;;;;;;5026107;28;45336;-41
2020/12/27 03:50:01;;;;;;;6.88;4.50;;;22.20;47.20;;;;;;5026230;28;45360;-41
2020/12/27 03:52:26;;;;;;;6.43;4.63;;;22.30;47.20;;;;;;5027787;28;45295;-42
2020/12/27 03:54:52;;;;;;;6.53;3.85;;;22.30;47.10;;;;;;5027240;28;47240;-41
2020/12/27 03:57:18;;;;;;;7.32;4.20;;;22.30;47.00;;;;;;5027059;28;45266;-43
2020/12/27 03:59:43;;;;;;;5.75;3.75;;;22.30;47.00;;;;;;5027307;28;45166;-42
2020/12/27 04:02:09;;;;;;;7.03;4.32;;;22.30;46.90;;;;;;5027844;28;45350;-42
2020/12/27 04:04:34;;;;;;;5.93;3.72;;;22.40;46.90;;;;;;5026517;28;45504;-42
2020/12/27 04:07:00;;;;;;;7.63;4.95;;;22.40;46.80;;;;;;5027463;28;45333;-42
2020/12/27 04:09:26;;;;;;;5.70;3.70;;;22.40;46.70;;;;;;5027386;28;45396;-42
2020/12/27 04:11:51;;;;;;;6.00;4.25;;;22.40;46.70;;;;;;5027678;28;45351;-42
2020/12/27 04:14:17;;;;;;;6.13;4.45;;;22.40;46.60;;;;;;5026625;28;45942;-42
2020/12/27 04:16:42;;;;;;;5.80;3.95;;;22.50;46.60;;;;;;5027089;28;45370;-42
2020/12/27 04:19:08;;;;;;;6.10;3.90;;;22.50;46.60;;;;;;5027256;28;45312;-42
2020/12/27 04:21:33;;;;;;;7.25;4.03;;;22.50;46.60;;;;;;5027392;28;45455;-43
2020/12/27 04:23:59;;;;;;;5.28;3.47;;;22.50;46.50;;;;;;5026905;28;46734;-42
2020/12/27 04:26:25;;;;;;;5.78;3.67;;;22.50;46.40;;;;;;5027010;28;45318;-42
2020/12/27 04:28:51;;;;;;;6.57;4.07;;;22.50;46.40;;;;;;5026795;28;45279;-42
2020/12/27 04:31:20;;;;;;;6.10;3.92;;;22.60;46.40;;;;;;5030011;28;45541;-43
2020/12/27 04:33:49;;;;;;;6.07;3.97;;;22.50;46.30;;;;;;5029916;28;46408;-42
2020/12/27 04:36:16;;;;;;;6.95;3.83;;;22.60;46.30;;;;;;5029652;28;45513;-42
2020/12/27 04:38:42;;;;;;;6.05;3.90;;;22.60;46.30;;;;;;5030131;28;45301;-42
2020/12/27 04:41:07;;;;;;;5.97;4.07;;;22.60;46.30;;;;;;5027043;28;45264;-42
2020/12/27 04:43:33;;;;;;;5.70;3.38;;;22.60;46.20;;;;;;5010027;28;46042;-42
2020/12/27 04:45:59;;;;;;;6.00;3.72;;;22.60;46.20;;;;;;5010052;28;45269;-42
2020/12/27 04:48:26;;;;;;;6.50;3.90;;;22.60;46.10;;;;;;5010425;28;45353;-42
2020/12/27 04:50:52;;;;;;;6.70;4.45;;;22.60;46.00;;;;;;5028411;28;45588;-42
2020/12/27 04:53:19;;;;;;;5.63;3.83;;;22.70;46.10;;;;;;5009855;28;46228;-42
2020/12/27 04:55:45;;;;;;;4.75;3.20;;;22.70;46.10;;;;;;5010075;28;45491;-42
2020/12/27 04:58:14;;;;;;;5.72;3.60;;;22.70;46.00;;;;;;5010219;28;45296;-42
2020/12/27 05:00:40;;;;;;;5.68;3.75;;;22.70;45.90;;;;;;5010511;28;45469;-42
2020/12/27 05:03:05;;;;;;;5.55;3.78;;;22.70;45.90;;;;;;5026304;28;45479;-42
2020/12/27 05:05:31;;;;;;;5.90;3.60;;;22.70;45.90;;;;;;5026542;28;45298;-42
2020/12/27 05:07:57;;;;;;;5.95;4.38;;;22.70;45.90;;;;;;5026339;28;45353;-42
2020/12/27 05:10:22;;;;;;;5.20;3.40;;;22.70;45.90;;;;;;5027021;28;45303;-43
2020/12/27 05:12:48;;;;;;;6.00;3.72;;;22.80;45.80;;;;;;5026476;28;45572;-42
2020/12/27 05:15:13;;;;;;;5.80;4.20;;;22.80;45.80;;;;;;5033891;28;45446;-42
2020/12/27 05:17:39;;;;;;;5.40;3.45;;;22.80;45.80;;;;;;5022660;28;45297;-42
2020/12/27 05:20:14;;;;;;;5.13;3.45;;;22.80;45.80;;;;;;5020698;28;45547;-42
2020/12/27 05:22:40;;;;;;;5.72;3.88;;;22.80;45.60;;;;;;5035364;28;45451;-42
2020/12/27 05:25:05;;;;;;;5.88;3.90;;;22.80;45.70;;;;;;5018710;28;45483;-42
2020/12/27 05:27:41;;;;;;;6.10;3.28;;;22.80;45.70;;;;;;5020379;28;45296;-42
2020/12/27 05:30:07;;;;;;;5.05;3.10;;;22.90;45.60;;;;;;5036748;28;45583;-42
2020/12/27 05:32:33;;;;;;;4.47;3.25;;;22.90;45.60;;;;;;5028373;28;46698;-43
2020/12/27 05:34:58;;;;;;;5.22;3.63;;;22.90;45.60;;;;;;5029622;28;45529;-42
2020/12/27 05:37:28;;;;;;;5.65;3.60;;;22.90;45.60;;;;;;5045724;28;45386;-42
2020/12/27 05:39:54;;;;;;;6.35;4.10;;;22.90;45.80;;;;;;5025894;28;45505;-42
2020/12/27 05:42:24;;;;;;;5.05;3.15;;;22.90;45.60;;;;;;5009398;28;46362;-42
2020/12/27 05:44:50;;;;;;;5.57;3.30;;;22.90;45.50;;;;;;5010988;28;45344;-42
2020/12/27 05:47:16;;;;;;;5.50;3.40;;;23.00;45.50;;;;;;5013171;28;45311;-42
2020/12/27 05:49:42;;;;;;;5.40;3.40;;;23.00;45.50;;;;;;5013251;28;45558;-42
2020/12/27 05:52:14;;;;;;;4.63;3.30;;;23.00;45.40;;;;;;5012850;28;46820;-43
2020/12/27 05:54:46;;;;;;;5.78;3.22;;;23.10;45.40;;;;;;5029335;28;45293;-42
2020/12/27 05:57:16;;;;;;;6.10;3.50;;;23.10;45.30;;;;;;5013398;28;45368;-43
2020/12/27 05:59:44;;;;;;;5.38;3.90;;;23.10;45.30;;;;;;5029723;28;45387;-42
2020/12/27 06:02:35;;;;;;;5.10;3.22;;;23.10;45.30;;;;;;5029096;28;47087;-42
2020/12/27 06:05:07;;;;;;;4.68;3.10;;;23.20;45.30;;;;;;5029175;28;45346;-42
2020/12/27 06:07:42;;;;;;;4.88;3.20;;;23.20;45.30;;;;;;5030517;28;45305;-43
2020/12/27 06:10:09;;;;;;;4.80;3.25;;;23.20;45.20;;;;;;5031010;28;45320;-42
2020/12/27 06:12:57;;;;;;;4.75;3.08;;;23.20;45.20;;;;;;5012570;28;46544;-42
2020/12/27 06:15:27;;;;;;;6.03;3.50;;;23.30;45.10;;;;;;5030239;28;45254;-42
2020/12/27 06:17:54;;;;;;;5.30;3.40;;;23.30;45.10;;;;;;5029137;28;45360;-42
2020/12/27 06:20:21;;;;;;;7.38;3.88;;;23.30;45.10;;;;;;5030361;28;45556;-42
2020/12/27 06:22:50;;;;;;;6.25;3.88;;;23.30;45.10;;;;;;5012538;28;45918;-42
2020/12/27 06:25:19;;;;;;;5.55;3.42;;;23.30;45.00;;;;;;5012374;28;45442;-42
2020/12/27 06:27:45;;;;;;;5.15;3.63;;;23.40;45.00;;;;;;5012604;28;45395;-42
2020/12/27 06:30:18;;;;;;;6.45;3.70;;;23.40;45.00;;;;;;5012845;28;45506;-42
2020/12/27 06:32:54;;;;;;;4.15;2.60;;;23.40;45.00;;;;;;5044834;28;46504;-42
2020/12/27 06:35:33;;;;;;;5.85;3.53;;;23.40;44.90;;;;;;5049599;28;45350;-42
2020/12/27 06:37:59;;;;;;;5.65;3.85;;;23.40;44.90;;;;;;5043355;28;45324;-42
2020/12/27 06:40:25;;;;;;;4.40;3.03;;;23.40;44.90;;;;;;5039458;28;45296;-43
2020/12/27 06:42:51;;;;;;;5.13;3.30;;;23.50;44.90;;;;;;5048440;28;46461;-42
2020/12/27 06:45:29;;;;;;;6.35;3.63;;;23.50;44.80;;;;;;5048487;28;45370;-43
2020/12/27 06:47:56;;;;;;;4.97;3.25;;;23.50;44.80;;;;;;5048966;28;45331;-42
2020/12/27 06:50:24;;;;;;;5.93;3.80;;;23.50;44.80;;;;;;5049132;28;45326;-42
2020/12/27 06:52:49;;;;;;;5.10;2.95;;;23.60;44.80;;;;;;5048275;28;45980;-42
2020/12/27 06:55:34;;;;;;;5.45;3.63;;;23.50;44.80;;;;;;5047857;28;45379;-42
2020/12/27 06:58:19;;;;;;;4.55;2.95;;;23.60;44.70;;;;;;5048242;28;45467;-43
2020/12/27 07:00:45;;;;;;;;;;;23.60;44.70;;;;;;5050284;28;45649;-43
2020/12/27 07:03:10;;;;;;;5.00;3.55;;;23.60;44.80;;;;;;5045033;28;46498;-43
2020/12/27 07:05:37;;;;;;;4.60;2.90;;;23.60;44.80;;;;;;5029782;28;45400;-43
2020/12/27 07:08:07;;;;;;;5.00;3.40;;;23.60;44.70;;;;;;5027838;28;45457;-43
2020/12/27 07:10:34;;;;;;;6.03;3.20;;;23.70;44.60;;;;;;5045303;28;45435;-43
2020/12/27 07:13:10;;;;;;;5.20;3.10;;;23.60;44.60;;;;;;5027550;28;45510;-43
2020/12/27 07:15:51;;;;;;;6.68;3.13;;;23.70;44.60;;;;;;5027451;28;45280;-43
2020/12/27 07:18:27;;;;;;;5.00;3.38;;;23.70;44.60;;;;;;5044720;28;45344;-43
2020/12/27 07:20:54;;;;;;;5.63;3.47;;;23.70;44.60;;;;;;5045023;28;45299;-41
2020/12/27 07:23:26;;;;;;;5.55;3.33;;;23.70;44.60;;;;;;5025474;28;47148;-43
2020/12/27 07:25:55;;;;;;;5.47;3.53;;;23.70;44.60;;;;;;5028779;28;45408;-42
2020/12/27 07:28:22;;;;;;;5.78;3.65;;;23.70;44.60;;;;;;5023915;28;45278;-43
2020/12/27 07:30:48;;;;;;;5.53;3.90;;;23.70;44.50;;;;;;5022047;28;45352;-43
2020/12/27 07:33:14;;;;;;;6.90;3.85;;;23.70;44.50;;;;;;5027606;28;46986;-43
2020/12/27 07:35:40;;;;;;;5.60;3.25;;;23.70;44.50;;;;;;5047665;28;45366;-42
2020/12/27 07:38:06;;;;;;;5.50;3.58;;;23.70;44.40;;;;;;5028213;28;45356;-42
2020/12/27 07:40:36;;;;;;;5.03;3.17;;;23.70;44.40;;;;;;5014282;28;45453;-42
2020/12/27 07:43:02;;;;;;;5.90;4.40;;;23.70;44.40;;;;;;5027597;28;46980;-42
2020/12/27 07:45:28;;;;;;;5.43;3.80;;;23.70;44.30;;;;;;5010888;28;45304;-41
2020/12/27 07:47:54;;;;;;;5.65;3.58;;;23.70;44.30;;;;;;5023513;28;45410;-41
2020/12/27 07:50:19;;;;;;;6.47;4.32;;;23.70;44.20;;;;;;5031409;28;45373;-43
2020/12/27 07:52:54;;;;;;;5.97;3.95;;;23.70;44.10;;;;;;5030591;28;46900;-43
2020/12/27 07:55:23;;;;;;;;;;;23.80;44.20;;;;;;5049131;28;45325;-43
2020/12/27 07:57:48;;;;;;;5.43;3.70;;;23.70;44.00;;;;;;5048539;28;45372;-43
2020/12/27 08:00:14;;;;;;;5.97;3.75;;;23.80;44.20;;;;;;5031108;28;45658;-43
2020/12/27 08:02:43;;;;;;;6.57;4.20;;;23.80;44.10;;;;;;5046963;28;46219;-43
2020/12/27 08:05:12;;;;;;;5.38;3.58;;;23.80;44.10;;;;;;5030563;28;45438;-43
2020/12/27 08:07:38;;;;;;;6.65;4.57;;;23.90;44.00;;;;;;5029698;28;45339;-43
2020/12/27 08:10:18;;;;;;;7.55;4.10;;;23.90;44.00;;;;;;5030430;28;45605;-43
2020/12/27 08:12:48;;;;;;;6.13;3.50;;;23.90;43.90;;;;;;5046500;28;46103;-43
2020/12/27 08:15:14;;;;;;;6.72;3.83;;;23.90;43.90;;;;;;5047270;28;45295;-41
2020/12/27 08:17:59;;;;;;;6.28;3.78;;;23.90;44.00;;;;;;5047260;28;45223;-43
2020/12/27 08:20:26;;;;;;;6.25;3.80;;;23.90;43.90;;;;;;5047868;28;45322;-50
2020/12/27 08:23:06;;;;;;;6.03;3.85;;;23.90;44.00;;;;;;5046337;28;46384;-42
2020/12/27 08:25:32;;;;;;;6.55;3.75;;;23.90;43.90;;;;;;5038069;28;45445;-42
2020/12/27 08:27:59;;;;;;;5.90;4.15;;;23.90;44.00;;;;;;5034112;28;45417;-42
2020/12/27 08:30:26;;;;;;;6.35;3.97;;;23.90;44.10;;;;;;5036279;28;45575;-42
2020/12/27 08:33:02;;;;;;;8.32;4.05;;;23.90;44.10;;;;;;5019566;28;46851;-42
2020/12/27 08:35:28;;;;;;;7.60;3.80;;;23.90;44.10;;;;;;5033498;28;45557;-43
2020/12/27 08:37:59;;;;;;;5.88;3.90;;;23.90;44.10;;;;;;5017428;28;46367;-42
2020/12/27 08:40:24;;;;;;;5.93;3.35;;;23.90;44.70;;;;;;5034327;28;45402;-42
2020/12/27 08:42:50;;;;;;;5.68;3.70;;;23.90;44.20;;;;;;5034315;28;46343;-42
2020/12/27 08:45:16;;;;;;;4.47;3.38;;;23.90;44.20;;;;;;5015767;28;45468;-42
2020/12/27 08:47:57;;;;;;;5.63;3.88;;;23.90;44.20;;;;;;5012683;28;45238;-42
2020/12/27 08:50:24;;;;;;;7.57;4.80;;;23.90;44.20;;;;;;5026326;28;45447;-45
2020/12/27 08:52:56;;;;;;;5.38;3.65;;;23.90;44.40;;;;;;5038622;28;47290;-46
2020/12/27 08:55:31;;;;;;;8.52;4.10;;;23.90;44.70;;;;;;5023437;28;45505;-46
2020/12/27 08:57:57;;;;;;;10.43;4.07;;;23.90;44.80;;;;;;5040076;28;45572;-46
2020/12/27 09:00:30;;;;;;;10.93;4.53;;;23.90;45.10;;;;;;5032350;28;45497;-46
2020/12/27 09:02:58;;;;;;;13.35;5.53;;;23.90;44.90;;;;;;5036323;28;45422;-45
2020/12/27 09:05:27;;;;;;;12.30;5.25;;;23.90;44.60;;;;;;5020083;28;45501;-45
2020/12/27 09:07:53;;;;;;;11.23;5.93;;;23.90;44.40;;;;;;5006226;28;45523;-46
2020/12/27 09:10:28;;;;;;;9.75;5.15;;;23.90;44.20;;;;;;5038540;28;45762;-45
2020/12/27 09:12:59;;;;;;;14.57;6.15;;;23.90;43.70;;;;;;5035692;28;46770;-45
2020/12/27 09:15:47;;;;;;;10.77;6.00;;;23.90;43.60;;;;;;5034189;28;45610;-46
2020/12/27 09:18:14;;;;;;;15.15;5.50;;;24.00;44.00;;;;;;5036262;28;45874;-45
2020/12/27 09:20:41;;;;;;;8.65;5.35;;;24.00;44.50;;;;;;5036726;28;45483;-45
2020/12/27 09:23:20;;;;;;;9.13;4.65;;;24.00;44.70;;;;;;5021978;28;46164;-45
2020/12/27 09:25:47;;;;;;;9.85;4.47;;;24.00;44.70;;;;;;5036808;28;45406;-45
2020/12/27 09:28:14;;;;;;;7.97;4.90;;;24.00;44.80;;;;;;5022672;28;45507;-46
2020/12/27 09:30:40;;;;;;;6.43;4.20;;;24.00;44.90;;;;;;5035560;28;45687;-45
2020/12/27 09:33:07;;;;;;;8.40;4.35;;;23.90;45.20;;;;;;5022192;28;45841;-48
2020/12/27 09:35:32;;;;;;;7.43;4.25;;;23.90;45.50;;;;;;5024750;28;45482;-47
2020/12/27 09:37:58;;;;;;;14.00;4.10;;;24.00;45.30;;;;;;5035694;28;45352;-48
2020/12/27 09:40:23;;;;;;;9.43;4.75;;;24.00;45.20;;;;;;5025063;28;45468;-47
2020/12/27 09:43:01;;;;;;;10.88;4.50;;;24.00;45.10;;;;;;5020071;28;46519;-47
2020/12/27 09:45:26;;;;;;;8.95;4.72;;;24.10;45.30;;;;;;5018812;28;45666;-48
2020/12/27 09:47:56;;;;;;;7.70;4.50;;;24.10;45.30;;;;;;5020633;28;45416;-48
2020/12/27 09:50:26;;;;;;;7.05;3.90;;;24.20;45.20;;;;;;5037724;28;45719;-48
2020/12/27 09:52:51;;;;;;;9.45;3.88;;;24.20;45.30;;;;;;5038599;28;47076;-48
2020/12/27 09:55:17;;;;;;;8.40;3.95;;;24.30;45.30;;;;;;5019383;28;45658;-47
2020/12/27 09:57:43;;;;;;;13.45;6.22;;;24.40;45.30;;;;;;5038954;28;45420;-48
2020/12/27 10:00:08;;;;;;;11.50;5.88;;;24.40;43.00;;;;;;5023460;28;45268;-49
2020/12/27 10:02:34;;;;;;;8.10;5.10;;;24.30;41.10;;;;;;5025112;28;46224;-47
2020/12/27 10:05:00;;;;;;;10.60;5.90;;;24.30;39.30;;;;;;5030474;28;45328;-48
2020/12/27 10:07:25;;;;;;;10.52;5.25;;;24.10;37.60;;;;;;5025568;28;45444;-47
2020/12/27 10:09:51;;;;;;;7.65;5.07;;;24.00;36.30;;;;;;5020017;28;45576;-48
2020/12/27 10:12:18;;;;;;;9.10;6.00;;;23.90;36.00;;;;;;5011026;28;45383;-47
2020/12/27 10:14:43;;;;;;;9.15;6.10;;;23.90;35.50;;;;;;5031534;28;45567;-47
2020/12/27 10:17:10;;;;;;;12.75;6.03;;;23.80;33.80;;;;;;5042859;28;45474;-48
2020/12/27 10:19:35;;;;;;;9.30;5.57;;;23.80;34.50;;;;;;5021631;28;45542;-47
2020/12/27 10:22:02;;;;;;;7.13;4.78;;;23.80;34.00;;;;;;5018252;28;45453;-48
2020/12/27 10:24:31;;;;;;;8.98;5.80;;;23.80;34.50;;;;;;5020728;28;45488;-48
2020/12/27 10:26:57;;;;;;;6.80;4.80;;;23.90;33.80;;;;;;5020179;28;45367;-48
2020/12/27 10:29:22;;;;;;;6.97;4.63;;;23.80;34.80;;;;;;5036696;28;45740;-46
2020/12/27 10:31:49;;;;;;;6.85;4.93;;;23.90;35.40;;;;;;5037623;28;45522;-46
2020/12/27 10:34:15;;;;;;;7.65;5.30;;;23.90;36.20;;;;;;5028068;28;45289;-46
2020/12/27 10:36:47;;;;;;;6.00;4.40;;;23.90;36.20;;;;;;5021321;28;45350;-45
2020/12/27 10:39:14;;;;;;;7.07;4.32;;;24.00;36.00;;;;;;5035482;28;45625;-45
2020/12/27 10:41:42;;;;;;;9.95;5.35;;;24.00;36.20;;;;;;5024639;28;46492;-45
2020/12/27 10:44:08;;;;;;;8.38;4.07;;;24.00;36.30;;;;;;5019433;28;45549;-44
2020/12/27 10:46:34;;;;;;;8.98;5.30;;;24.10;36.30;;;;;;5034711;28;45585;-44
2020/12/27 10:49:00;;;;;;;8.48;5.50;;;24.10;36.40;;;;;;5023716;28;46536;-45
2020/12/27 10:51:26;;;;;;;8.68;4.97;;;24.00;36.30;;;;;;5037958;28;47297;-44
2020/12/27 10:53:51;;;;;;;8.80;5.05;;;24.00;36.80;;;;;;5018686;28;45731;-44
2020/12/27 10:56:17;;;;;;;8.30;4.50;;;24.00;37.10;;;;;;5036862;28;45439;-44
2020/12/27 10:58:42;;;;;;;7.38;5.10;;;24.00;37.50;;;;;;5023520;28;45759;-44
2020/12/27 11:01:08;;;;;;;9.55;5.53;;;24.00;37.40;;;;;;5030688;28;46425;-44
2020/12/27 11:03:34;;;;;;;8.63;5.75;;;24.00;37.40;;;;;;5030561;28;45358;-44
2020/12/27 11:05:59;;;;;;;8.30;5.03;;;24.00;37.60;;;;;;5047360;28;45437;-44
2020/12/27 11:08:25;;;;;;;10.60;6.70;;;24.00;37.40;;;;;;5028425;28;45476;-44
2020/12/27 11:10:50;;;;;;;8.05;5.32;;;24.00;37.40;;;;;;5027466;28;45484;-44
2020/12/27 11:13:16;;;;;;;9.43;5.32;;;24.00;37.30;;;;;;5030133;28;45372;-44
2020/12/27 11:15:42;;;;;;;10.45;6.40;;;24.00;37.40;;;;;;5030244;28;45481;-44
2020/12/27 11:18:07;;;;;;;10.15;5.40;;;24.00;37.70;;;;;;5024575;28;45524;-44
2020/12/27 11:20:33;;;;;;;9.63;6.40;;;24.00;37.70;;;;;;5018923;28;45953;-44
2020/12/27 11:22:59;;;;;;;8.32;6.05;;;24.00;37.90;;;;;;5020055;28;45289;-44
2020/12/27 11:25:25;;;;;;;8.65;5.93;;;24.00;38.10;;;;;;5037158;28;45694;-45
2020/12/27 11:27:50;;;;;;;9.25;6.18;;;24.00;37.60;;;;;;5017800;28;45644;-44
2020/12/27 11:30:16;;;;;;;9.82;6.38;;;24.00;37.30;;;;;;5017589;28;45385;-44
2020/12/27 11:32:42;;;;;;;10.85;7.20;;;24.00;37.00;;;;;;5033725;28;45366;-44
2020/12/27 11:35:07;;;;;;;11.65;6.53;;;24.00;36.90;;;;;;5020269;28;45505;-44
2020/12/27 11:37:33;;;;;;;8.73;6.60;;;23.90;36.70;;;;;;5052675;28;45490;-44
2020/12/27 11:39:59;;;;;;;9.57;6.38;;;23.90;36.60;;;;;;5035113;28;46124;-44
2020/12/27 11:42:25;;;;;;;10.82;6.53;;;23.90;36.40;;;;;;5023562;28;45446;-44
2020/12/27 11:44:51;;;;;;;9.85;6.80;;;23.90;36.30;;;;;;5019041;28;45619;-45
2020/12/27 11:47:17;;;;;;;10.07;6.95;;;23.90;36.30;;;;;;5021288;28;45513;-44
2020/12/27 11:49:43;;;;;;;8.18;5.95;;;23.80;35.90;;;;;;5019333;28;46568;-45
2020/12/27 11:52:08;;;;;;;12.15;6.75;;;23.80;36.00;;;;;;5018256;28;45337;-44
2020/12/27 11:54:34;;;;;;;9.25;6.22;;;23.80;35.70;;;;;;5018495;28;46366;-44
2020/12/27 11:57:00;;;;;;;9.95;6.55;;;23.80;35.80;;;;;;5021998;28;45728;-46
2020/12/27 11:59:25;;;;;;;10.88;6.55;;;23.90;36.30;;;;;;5038822;28;46863;-47
2020/12/27 12:01:51;;;;;;;8.18;6.07;;;23.90;36.40;;;;;;5046555;28;45359;-47
2020/12/27 12:04:17;;;;;;;9.48;6.50;;;23.90;36.70;;;;;;5046486;28;45372;-47
2020/12/27 12:06:43;;;;;;;8.63;6.03;;;24.00;37.00;;;;;;5040488;28;45633;-46
2020/12/27 12:09:09;;;;;;;8.93;6.00;;;24.10;37.30;;;;;;5018835;28;46351;-47
2020/12/27 12:11:35;;;;;;;9.05;6.38;;;24.10;37.50;;;;;;5041122;28;45588;-47
2020/12/27 12:14:01;;;;;;;8.88;5.63;;;24.10;37.50;;;;;;5039257;28;45480;-47
2020/12/27 12:16:27;;;;;;;8.10;5.85;;;24.20;37.70;;;;;;5042487;28;45670;-48
2020/12/27 12:18:53;;;;;;;9.13;5.55;;;24.20;37.80;;;;;;5066456;28;47097;-48
2020/12/27 12:21:19;;;;;;;7.82;6.05;;;24.30;38.00;;;;;;5066382;28;45286;-49
2020/12/27 12:23:44;;;;;;;9.48;6.60;;;24.30;38.10;;;;;;5066495;28;45436;-47
2020/12/27 12:26:10;;;;;;;9.23;5.18;;;24.30;38.20;;;;;;5047242;28;45507;-47
2020/12/27 12:28:36;;;;;;;7.63;5.10;;;24.30;39.00;;;;;;5024394;28;46270;-47
2020/12/27 12:31:02;;;;;;;8.75;5.60;;;24.30;39.00;;;;;;5042780;28;45774;-47
2020/12/27 12:33:27;;;;;;;8.73;5.68;;;24.30;39.00;;;;;;5034382;28;45407;-46
2020/12/27 12:35:53;;;;;;;8.35;5.25;;;24.40;39.00;;;;;;5027723;28;45575;-47
2020/12/27 12:38:18;;;;;;;8.07;5.13;;;24.40;39.10;;;;;;5025120;28;46858;-46
2020/12/27 12:40:44;;;;;;;7.63;4.82;;;24.40;39.10;;;;;;5009255;28;45475;-46
2020/12/27 12:43:10;;;;;;;7.55;4.88;;;24.50;39.80;;;;;;5009933;28;45340;-47
2020/12/27 12:45:35;;;;;;;8.00;5.22;;;24.50;39.30;;;;;;5026472;28;45353;-46